sensor_id;sensor_type;location;lat;lon;timestamp;temperature;humidity
32296;DHT22;18781;51.550;5.418;2023-07-29T00:01:20;21.80;70.10
32296;DHT22;18781;51.550;5.418;2023-07-29T00:03:46;21.80;70.30
32296;DHT22;18781;51.550;5.418;2023-07-29T00:06:11;21.70;70.30
32296;DHT22;18781;51.550;5.418;2023-07-29T00:08:37;21.70;70.50
32296;DHT22;18781;51.550;5.418;2023-07-29T00:11:02;21.70;70.50
32296;DHT22;18781;51.550;5.418;2023-07-29T00:13:28;21.70;70.60
32296;DHT22;18781;51.550;5.418;2023-07-29T00:15:54;21.70;70.70
32296;DHT22;18781;51.550;5.418;2023-07-29T00:18:21;21.60;70.90
32296;DHT22;18781;51.550;5.418;2023-07-29T00:20:47;21.60;71.00
32296;DHT22;18781;51.550;5.418;2023-07-29T00:23:12;21.70;71.10
32296;DHT22;18781;51.550;5.418;2023-07-29T00:25:38;21.60;71.10
32296;DHT22;18781;51.550;5.418;2023-07-29T00:28:03;21.60;71.10
32296;DHT22;18781;51.550;5.418;2023-07-29T00:30:29;21.60;71.20
32296;DHT22;18781;51.550;5.418;2023-07-29T00:32:55;21.60;71.20
32296;DHT22;18781;51.550;5.418;2023-07-29T00:35:20;21.60;71.20
32296;DHT22;18781;51.550;5.418;2023-07-29T00:37:46;21.60;71.30
32296;DHT22;18781;51.550;5.418;2023-07-29T00:40:30;21.60;71.50
32296;DHT22;18781;51.550;5.418;2023-07-29T00:43:00;21.60;72.20
32296;DHT22;18781;51.550;5.418;2023-07-29T00:45:27;21.60;71.40
32296;DHT22;18781;51.550;5.418;2023-07-29T00:47:54;21.60;71.70
32296;DHT22;18781;51.550;5.418;2023-07-29T00:50:20;21.60;72.20
32296;DHT22;18781;51.550;5.418;2023-07-29T00:52:46;21.50;71.70
32296;DHT22;18781;51.550;5.418;2023-07-29T00:55:12;21.50;71.70
32296;DHT22;18781;51.550;5.418;2023-07-29T00:57:37;21.50;71.80
32296;DHT22;18781;51.550;5.418;2023-07-29T01:00:03;21.50;71.90
32296;DHT22;18781;51.550;5.418;2023-07-29T01:02:30;21.50;71.90
32296;DHT22;18781;51.550;5.418;2023-07-29T01:04:58;21.50;72.00
32296;DHT22;18781;51.550;5.418;2023-07-29T01:07:50;21.50;72.10
32296;DHT22;18781;51.550;5.418;2023-07-29T01:10:43;21.40;72.50
32296;DHT22;18781;51.550;5.418;2023-07-29T01:16:52;21.40;72.40
32296;DHT22;18781;51.550;5.418;2023-07-29T01:18:53;21.40;72.40
32296;DHT22;18781;51.550;5.418;2023-07-29T01:21:19;21.40;72.30
32296;DHT22;18781;51.550;5.418;2023-07-29T01:23:46;21.40;72.20
32296;DHT22;18781;51.550;5.418;2023-07-29T01:26:11;21.40;72.30
32296;DHT22;18781;51.550;5.418;2023-07-29T01:28:37;21.40;72.30
32296;DHT22;18781;51.550;5.418;2023-07-29T01:31:12;21.40;72.30
32296;DHT22;18781;51.550;5.418;2023-07-29T01:33:50;21.30;72.70
32296;DHT22;18781;51.550;5.418;2023-07-29T01:36:21;21.30;72.80
32296;DHT22;18781;51.550;5.418;2023-07-29T01:38:49;21.40;72.40
32296;DHT22;18781;51.550;5.418;2023-07-29T01:41:17;21.30;72.30
32296;DHT22;18781;51.550;5.418;2023-07-29T01:43:43;21.30;72.40
32296;DHT22;18781;51.550;5.418;2023-07-29T01:46:13;21.30;72.40
32296;DHT22;18781;51.550;5.418;2023-07-29T01:48:39;21.30;72.70
32296;DHT22;18781;51.550;5.418;2023-07-29T01:51:05;21.30;72.60
32296;DHT22;18781;51.550;5.418;2023-07-29T01:53:31;21.30;72.70
32296;DHT22;18781;51.550;5.418;2023-07-29T01:55:57;21.30;72.80
32296;DHT22;18781;51.550;5.418;2023-07-29T01:58:23;21.30;72.90
32296;DHT22;18781;51.550;5.418;2023-07-29T02:00:49;21.20;73.00
32296;DHT22;18781;51.550;5.418;2023-07-29T02:03:14;21.20;72.90
32296;DHT22;18781;51.550;5.418;2023-07-29T02:05:40;21.20;73.00
32296;DHT22;18781;51.550;5.418;2023-07-29T02:08:07;21.20;73.00
32296;DHT22;18781;51.550;5.418;2023-07-29T02:10:32;21.20;73.00
32296;DHT22;18781;51.550;5.418;2023-07-29T02:12:58;21.20;73.00
32296;DHT22;18781;51.550;5.418;2023-07-29T02:15:24;21.20;73.00
32296;DHT22;18781;51.550;5.418;2023-07-29T02:17:50;21.20;73.00
32296;DHT22;18781;51.550;5.418;2023-07-29T02:20:16;21.20;72.90
32296;DHT22;18781;51.550;5.418;2023-07-29T02:22:42;21.20;72.80
32296;DHT22;18781;51.550;5.418;2023-07-29T02:25:07;21.20;72.70
32296;DHT22;18781;51.550;5.418;2023-07-29T02:27:33;21.20;72.60
32296;DHT22;18781;51.550;5.418;2023-07-29T02:29:59;21.20;72.70
32296;DHT22;18781;51.550;5.418;2023-07-29T02:32:24;21.20;72.60
32296;DHT22;18781;51.550;5.418;2023-07-29T02:34:50;21.20;72.70
32296;DHT22;18781;51.550;5.418;2023-07-29T02:37:16;21.20;72.60
32296;DHT22;18781;51.550;5.418;2023-07-29T02:39:42;21.20;72.60
32296;DHT22;18781;51.550;5.418;2023-07-29T02:42:07;21.20;72.50
32296;DHT22;18781;51.550;5.418;2023-07-29T02:44:33;21.10;72.40
32296;DHT22;18781;51.550;5.418;2023-07-29T02:46:58;21.20;72.40
32296;DHT22;18781;51.550;5.418;2023-07-29T02:49:24;21.10;72.30
32296;DHT22;18781;51.550;5.418;2023-07-29T02:51:50;21.10;72.20
32296;DHT22;18781;51.550;5.418;2023-07-29T02:54:15;21.10;72.10
32296;DHT22;18781;51.550;5.418;2023-07-29T02:56:41;21.10;72.00
32296;DHT22;18781;51.550;5.418;2023-07-29T02:59:06;21.10;72.00
32296;DHT22;18781;51.550;5.418;2023-07-29T03:01:32;21.10;72.00
32296;DHT22;18781;51.550;5.418;2023-07-29T03:03:57;21.00;72.00
32296;DHT22;18781;51.550;5.418;2023-07-29T03:06:23;21.00;71.90
32296;DHT22;18781;51.550;5.418;2023-07-29T03:08:49;21.00;71.80
32296;DHT22;18781;51.550;5.418;2023-07-29T03:11:15;21.00;71.80
32296;DHT22;18781;51.550;5.418;2023-07-29T03:13:42;21.00;71.80
32296;DHT22;18781;51.550;5.418;2023-07-29T03:16:12;21.00;71.90
32296;DHT22;18781;51.550;5.418;2023-07-29T03:18:38;21.00;71.80
32296;DHT22;18781;51.550;5.418;2023-07-29T03:21:04;21.00;71.90
32296;DHT22;18781;51.550;5.418;2023-07-29T03:23:31;20.90;71.80
32296;DHT22;18781;51.550;5.418;2023-07-29T03:25:58;20.90;71.80
32296;DHT22;18781;51.550;5.418;2023-07-29T03:28:26;20.90;71.90
32296;DHT22;18781;51.550;5.418;2023-07-29T03:30:55;20.90;71.80
32296;DHT22;18781;51.550;5.418;2023-07-29T03:33:20;20.90;71.80
32296;DHT22;18781;51.550;5.418;2023-07-29T03:35:46;20.90;71.90
32296;DHT22;18781;51.550;5.418;2023-07-29T03:38:12;20.90;71.90
32296;DHT22;18781;51.550;5.418;2023-07-29T03:40:38;20.80;71.80
32296;DHT22;18781;51.550;5.418;2023-07-29T03:43:04;20.80;71.90
32296;DHT22;18781;51.550;5.418;2023-07-29T03:45:30;20.80;71.90
32296;DHT22;18781;51.550;5.418;2023-07-29T03:47:56;20.80;71.90
32296;DHT22;18781;51.550;5.418;2023-07-29T03:50:21;20.80;71.80
32296;DHT22;18781;51.550;5.418;2023-07-29T03:52:47;20.80;71.80
32296;DHT22;18781;51.550;5.418;2023-07-29T03:55:12;20.70;71.70
32296;DHT22;18781;51.550;5.418;2023-07-29T03:57:38;20.70;71.70
32296;DHT22;18781;51.550;5.418;2023-07-29T04:00:04;20.70;72.30
32296;DHT22;18781;51.550;5.418;2023-07-29T04:02:30;20.70;71.70
32296;DHT22;18781;51.550;5.418;2023-07-29T04:04:55;20.70;71.70
32296;DHT22;18781;51.550;5.418;2023-07-29T04:07:21;20.60;71.60
32296;DHT22;18781;51.550;5.418;2023-07-29T04:09:46;20.60;71.80
32296;DHT22;18781;51.550;5.418;2023-07-29T04:12:12;20.60;71.80
32296;DHT22;18781;51.550;5.418;2023-07-29T04:14:38;20.60;71.80
32296;DHT22;18781;51.550;5.418;2023-07-29T04:17:04;20.60;71.90
32296;DHT22;18781;51.550;5.418;2023-07-29T04:19:29;20.60;71.90
32296;DHT22;18781;51.550;5.418;2023-07-29T04:21:55;20.60;71.90
32296;DHT22;18781;51.550;5.418;2023-07-29T04:24:20;20.60;72.00
32296;DHT22;18781;51.550;5.418;2023-07-29T04:26:48;20.50;71.90
32296;DHT22;18781;51.550;5.418;2023-07-29T04:29:14;20.50;71.90
32296;DHT22;18781;51.550;5.418;2023-07-29T04:31:40;20.50;72.40
32296;DHT22;18781;51.550;5.418;2023-07-29T04:34:05;20.50;72.10
32296;DHT22;18781;51.550;5.418;2023-07-29T04:36:31;20.50;72.20
32296;DHT22;18781;51.550;5.418;2023-07-29T04:38:56;20.50;72.10
32296;DHT22;18781;51.550;5.418;2023-07-29T04:41:22;20.50;72.20
32296;DHT22;18781;51.550;5.418;2023-07-29T04:43:47;20.50;72.20
32296;DHT22;18781;51.550;5.418;2023-07-29T04:46:15;20.50;72.30
32296;DHT22;18781;51.550;5.418;2023-07-29T04:48:40;20.50;72.40
32296;DHT22;18781;51.550;5.418;2023-07-29T04:51:06;20.50;72.30
32296;DHT22;18781;51.550;5.418;2023-07-29T04:53:31;20.50;72.40
32296;DHT22;18781;51.550;5.418;2023-07-29T04:55:57;20.40;72.30
32296;DHT22;18781;51.550;5.418;2023-07-29T04:58:22;20.40;72.30
32296;DHT22;18781;51.550;5.418;2023-07-29T05:00:48;20.40;72.40
32296;DHT22;18781;51.550;5.418;2023-07-29T05:03:13;20.40;72.30
32296;DHT22;18781;51.550;5.418;2023-07-29T05:05:39;20.40;72.40
32296;DHT22;18781;51.550;5.418;2023-07-29T05:08:05;20.40;72.40
32296;DHT22;18781;51.550;5.418;2023-07-29T05:10:30;20.40;72.40
32296;DHT22;18781;51.550;5.418;2023-07-29T05:12:56;20.40;72.30
32296;DHT22;18781;51.550;5.418;2023-07-29T05:15:21;20.40;72.40
32296;DHT22;18781;51.550;5.418;2023-07-29T05:17:47;20.40;72.30
32296;DHT22;18781;51.550;5.418;2023-07-29T05:20:12;20.40;72.30
32296;DHT22;18781;51.550;5.418;2023-07-29T05:22:38;20.50;72.40
32296;DHT22;18781;51.550;5.418;2023-07-29T05:25:04;20.50;72.50
32296;DHT22;18781;51.550;5.418;2023-07-29T05:27:29;20.50;72.40
32296;DHT22;18781;51.550;5.418;2023-07-29T05:29:55;20.50;72.40
32296;DHT22;18781;51.550;5.418;2023-07-29T05:32:21;20.50;72.40
32296;DHT22;18781;51.550;5.418;2023-07-29T05:34:46;20.50;72.30
32296;DHT22;18781;51.550;5.418;2023-07-29T05:37:12;20.50;72.30
32296;DHT22;18781;51.550;5.418;2023-07-29T05:39:37;20.50;72.40
32296;DHT22;18781;51.550;5.418;2023-07-29T05:42:03;20.50;72.40
32296;DHT22;18781;51.550;5.418;2023-07-29T05:44:29;20.50;72.40
32296;DHT22;18781;51.550;5.418;2023-07-29T05:46:57;20.50;72.40
32296;DHT22;18781;51.550;5.418;2023-07-29T05:49:23;20.50;72.40
32296;DHT22;18781;51.550;5.418;2023-07-29T05:51:48;20.60;72.50
32296;DHT22;18781;51.550;5.418;2023-07-29T05:54:17;20.60;72.50
32296;DHT22;18781;51.550;5.418;2023-07-29T05:56:42;20.60;72.60
32296;DHT22;18781;51.550;5.418;2023-07-29T05:59:08;20.60;72.70
32296;DHT22;18781;51.550;5.418;2023-07-29T06:01:33;20.70;72.90
32296;DHT22;18781;51.550;5.418;2023-07-29T06:03:59;20.80;73.10
32296;DHT22;18781;51.550;5.418;2023-07-29T06:06:24;20.80;72.90
32296;DHT22;18781;51.550;5.418;2023-07-29T06:08:50;20.80;72.80
32296;DHT22;18781;51.550;5.418;2023-07-29T06:11:16;20.90;72.50
32296;DHT22;18781;51.550;5.418;2023-07-29T06:13:42;20.90;72.30
32296;DHT22;18781;51.550;5.418;2023-07-29T06:16:07;21.00;72.40
32296;DHT22;18781;51.550;5.418;2023-07-29T06:18:33;21.00;72.20
32296;DHT22;18781;51.550;5.418;2023-07-29T06:20:58;21.00;72.40
32296;DHT22;18781;51.550;5.418;2023-07-29T06:23:24;21.10;72.40
32296;DHT22;18781;51.550;5.418;2023-07-29T06:25:49;21.10;72.30
32296;DHT22;18781;51.550;5.418;2023-07-29T06:28:15;21.20;72.40
32296;DHT22;18781;51.550;5.418;2023-07-29T06:30:40;21.20;72.30
32296;DHT22;18781;51.550;5.418;2023-07-29T06:33:06;21.30;72.10
32296;DHT22;18781;51.550;5.418;2023-07-29T06:35:31;21.30;72.00
32296;DHT22;18781;51.550;5.418;2023-07-29T06:37:57;21.30;71.80
32296;DHT22;18781;51.550;5.418;2023-07-29T06:40:23;21.40;71.80
32296;DHT22;18781;51.550;5.418;2023-07-29T06:42:48;21.40;71.80
32296;DHT22;18781;51.550;5.418;2023-07-29T06:45:14;21.40;71.80
32296;DHT22;18781;51.550;5.418;2023-07-29T06:47:41;21.50;71.70
32296;DHT22;18781;51.550;5.418;2023-07-29T06:50:06;21.50;71.60
32296;DHT22;18781;51.550;5.418;2023-07-29T06:52:32;21.50;71.60
32296;DHT22;18781;51.550;5.418;2023-07-29T06:54:58;21.60;71.70
32296;DHT22;18781;51.550;5.418;2023-07-29T06:57:23;21.60;71.40
32296;DHT22;18781;51.550;5.418;2023-07-29T06:59:49;21.70;71.50
32296;DHT22;18781;51.550;5.418;2023-07-29T07:02:14;21.70;71.50
32296;DHT22;18781;51.550;5.418;2023-07-29T07:04:40;21.80;71.60
32296;DHT22;18781;51.550;5.418;2023-07-29T07:07:06;21.80;71.40
32296;DHT22;18781;51.550;5.418;2023-07-29T07:09:31;21.90;71.50
32296;DHT22;18781;51.550;5.418;2023-07-29T07:11:57;22.00;71.70
32296;DHT22;18781;51.550;5.418;2023-07-29T07:14:22;22.00;71.70
32296;DHT22;18781;51.550;5.418;2023-07-29T07:16:48;22.10;71.20
32296;DHT22;18781;51.550;5.418;2023-07-29T07:19:13;22.10;71.10
32296;DHT22;18781;51.550;5.418;2023-07-29T07:21:39;22.20;71.00
32296;DHT22;18781;51.550;5.418;2023-07-29T07:24:04;22.20;71.00
32296;DHT22;18781;51.550;5.418;2023-07-29T07:26:30;22.30;70.90
32296;DHT22;18781;51.550;5.418;2023-07-29T07:28:55;22.30;70.50
32296;DHT22;18781;51.550;5.418;2023-07-29T07:31:22;22.30;70.50
32296;DHT22;18781;51.550;5.418;2023-07-29T07:33:47;22.30;70.50
32296;DHT22;18781;51.550;5.418;2023-07-29T07:36:13;22.30;70.50
32296;DHT22;18781;51.550;5.418;2023-07-29T07:38:38;22.40;70.60
32296;DHT22;18781;51.550;5.418;2023-07-29T07:41:04;22.50;70.40
32296;DHT22;18781;51.550;5.418;2023-07-29T07:43:30;22.50;70.20
32296;DHT22;18781;51.550;5.418;2023-07-29T07:46:00;22.50;70.00
32296;DHT22;18781;51.550;5.418;2023-07-29T07:48:26;22.50;70.10
32296;DHT22;18781;51.550;5.418;2023-07-29T07:50:52;22.60;70.10
32296;DHT22;18781;51.550;5.418;2023-07-29T07:53:17;22.60;70.00
32296;DHT22;18781;51.550;5.418;2023-07-29T07:55:43;22.60;69.80
32296;DHT22;18781;51.550;5.418;2023-07-29T07:58:08;22.70;70.00
32296;DHT22;18781;51.550;5.418;2023-07-29T08:00:34;22.80;70.10
32296;DHT22;18781;51.550;5.418;2023-07-29T08:02:59;22.80;69.10
32296;DHT22;18781;51.550;5.418;2023-07-29T08:05:25;22.80;68.60
32296;DHT22;18781;51.550;5.418;2023-07-29T08:07:51;22.90;68.40
32296;DHT22;18781;51.550;5.418;2023-07-29T08:10:16;22.90;68.20
32296;DHT22;18781;51.550;5.418;2023-07-29T08:12:42;22.90;68.50
32296;DHT22;18781;51.550;5.418;2023-07-29T08:15:08;22.90;68.60
32296;DHT22;18781;51.550;5.418;2023-07-29T08:17:33;23.00;68.30
32296;DHT22;18781;51.550;5.418;2023-07-29T08:19:59;23.00;68.50
32296;DHT22;18781;51.550;5.418;2023-07-29T08:22:24;23.10;68.50
32296;DHT22;18781;51.550;5.418;2023-07-29T08:24:50;23.10;68.40
32296;DHT22;18781;51.550;5.418;2023-07-29T08:27:16;23.10;68.00
32296;DHT22;18781;51.550;5.418;2023-07-29T08:29:41;23.10;68.00
32296;DHT22;18781;51.550;5.418;2023-07-29T08:32:07;23.10;68.10
32296;DHT22;18781;51.550;5.418;2023-07-29T08:34:33;23.20;67.80
32296;DHT22;18781;51.550;5.418;2023-07-29T08:36:58;23.20;67.70
32296;DHT22;18781;51.550;5.418;2023-07-29T08:39:25;23.20;67.70
32296;DHT22;18781;51.550;5.418;2023-07-29T08:42:09;23.20;67.50
32296;DHT22;18781;51.550;5.418;2023-07-29T08:44:41;23.20;67.40
32296;DHT22;18781;51.550;5.418;2023-07-29T08:47:07;23.30;66.70
32296;DHT22;18781;51.550;5.418;2023-07-29T08:49:33;23.30;67.20
32296;DHT22;18781;51.550;5.418;2023-07-29T08:51:59;23.30;67.30
32296;DHT22;18781;51.550;5.418;2023-07-29T08:54:26;23.40;67.30
32296;DHT22;18781;51.550;5.418;2023-07-29T08:56:53;23.40;67.30
32296;DHT22;18781;51.550;5.418;2023-07-29T08:59:19;23.50;67.70
32296;DHT22;18781;51.550;5.418;2023-07-29T09:01:45;23.60;67.00
32296;DHT22;18781;51.550;5.418;2023-07-29T09:04:12;23.60;66.70
32296;DHT22;18781;51.550;5.418;2023-07-29T09:06:39;23.70;66.30
32296;DHT22;18781;51.550;5.418;2023-07-29T09:09:05;23.70;66.10
32296;DHT22;18781;51.550;5.418;2023-07-29T09:11:33;23.80;66.40
32296;DHT22;18781;51.550;5.418;2023-07-29T09:13:59;23.80;66.40
32296;DHT22;18781;51.550;5.418;2023-07-29T09:16:25;23.90;66.40
32296;DHT22;18781;51.550;5.418;2023-07-29T09:18:51;23.90;66.30
32296;DHT22;18781;51.550;5.418;2023-07-29T09:21:18;24.00;66.20
32296;DHT22;18781;51.550;5.418;2023-07-29T09:23:49;24.00;66.40
32296;DHT22;18781;51.550;5.418;2023-07-29T09:26:25;24.10;66.00
32296;DHT22;18781;51.550;5.418;2023-07-29T09:28:52;24.20;65.20
32296;DHT22;18781;51.550;5.418;2023-07-29T09:31:20;24.20;65.60
32296;DHT22;18781;51.550;5.418;2023-07-29T09:33:46;24.30;65.10
32296;DHT22;18781;51.550;5.418;2023-07-29T09:36:12;24.30;65.40
32296;DHT22;18781;51.550;5.418;2023-07-29T09:38:38;24.40;65.60
32296;DHT22;18781;51.550;5.418;2023-07-29T09:41:04;24.50;65.20
32296;DHT22;18781;51.550;5.418;2023-07-29T09:43:30;24.50;65.20
32296;DHT22;18781;51.550;5.418;2023-07-29T09:46:00;24.60;64.70
32296;DHT22;18781;51.550;5.418;2023-07-29T09:48:26;24.70;64.10
32296;DHT22;18781;51.550;5.418;2023-07-29T09:50:54;24.70;63.90
32296;DHT22;18781;51.550;5.418;2023-07-29T09:53:20;24.70;64.50
32296;DHT22;18781;51.550;5.418;2023-07-29T09:55:47;24.70;64.10
32296;DHT22;18781;51.550;5.418;2023-07-29T09:58:14;24.80;64.00
32296;DHT22;18781;51.550;5.418;2023-07-29T10:00:39;24.80;63.60
32296;DHT22;18781;51.550;5.418;2023-07-29T10:03:06;24.80;63.30
32296;DHT22;18781;51.550;5.418;2023-07-29T10:05:32;24.80;62.70
32296;DHT22;18781;51.550;5.418;2023-07-29T10:08:00;24.80;62.40
32296;DHT22;18781;51.550;5.418;2023-07-29T10:10:27;24.80;62.20
32296;DHT22;18781;51.550;5.418;2023-07-29T10:12:54;24.80;62.40
32296;DHT22;18781;51.550;5.418;2023-07-29T10:15:20;24.80;62.40
32296;DHT22;18781;51.550;5.418;2023-07-29T10:17:46;24.90;63.10
32296;DHT22;18781;51.550;5.418;2023-07-29T10:20:12;24.90;64.10
32296;DHT22;18781;51.550;5.418;2023-07-29T10:22:43;25.00;63.90
32296;DHT22;18781;51.550;5.418;2023-07-29T10:25:16;25.00;63.40
32296;DHT22;18781;51.550;5.418;2023-07-29T10:30:12;25.20;62.50
32296;DHT22;18781;51.550;5.418;2023-07-29T10:32:38;25.30;62.40
32296;DHT22;18781;51.550;5.418;2023-07-29T10:35:07;25.30;62.00
32296;DHT22;18781;51.550;5.418;2023-07-29T10:37:33;25.40;62.10
32296;DHT22;18781;51.550;5.418;2023-07-29T10:39:58;25.40;61.60
32296;DHT22;18781;51.550;5.418;2023-07-29T10:42:24;25.50;62.20
32296;DHT22;18781;51.550;5.418;2023-07-29T10:44:51;25.50;62.00
32296;DHT22;18781;51.550;5.418;2023-07-29T10:47:22;25.60;62.50
32296;DHT22;18781;51.550;5.418;2023-07-29T10:49:54;25.70;62.30
32296;DHT22;18781;51.550;5.418;2023-07-29T10:55:01;25.80;62.20
32296;DHT22;18781;51.550;5.418;2023-07-29T10:57:36;25.90;61.20
32296;DHT22;18781;51.550;5.418;2023-07-29T11:00:03;25.90;60.90
32296;DHT22;18781;51.550;5.418;2023-07-29T11:02:32;26.00;60.80
32296;DHT22;18781;51.550;5.418;2023-07-29T11:04:58;26.00;60.20
32296;DHT22;18781;51.550;5.418;2023-07-29T11:07:27;26.00;60.60
32296;DHT22;18781;51.550;5.418;2023-07-29T11:10:02;26.00;60.60
32296;DHT22;18781;51.550;5.418;2023-07-29T11:12:44;26.00;61.00
32296;DHT22;18781;51.550;5.418;2023-07-29T11:18:00;26.00;60.30
32296;DHT22;18781;51.550;5.418;2023-07-29T11:20:27;26.00;60.30
32296;DHT22;18781;51.550;5.418;2023-07-29T11:22:55;26.00;59.70
32296;DHT22;18781;51.550;5.418;2023-07-29T11:25:22;26.00;59.90
32296;DHT22;18781;51.550;5.418;2023-07-29T11:27:49;25.90;59.90
32296;DHT22;18781;51.550;5.418;2023-07-29T11:30:15;25.90;60.00
32296;DHT22;18781;51.550;5.418;2023-07-29T11:32:42;25.90;60.70
32296;DHT22;18781;51.550;5.418;2023-07-29T11:35:13;25.90;61.20
32296;DHT22;18781;51.550;5.418;2023-07-29T11:37:41;25.90;60.80
32296;DHT22;18781;51.550;5.418;2023-07-29T11:40:07;26.00;61.40
32296;DHT22;18781;51.550;5.418;2023-07-29T11:42:36;26.00;60.90
32296;DHT22;18781;51.550;5.418;2023-07-29T11:45:02;26.10;60.60
32296;DHT22;18781;51.550;5.418;2023-07-29T11:47:29;26.10;60.30
32296;DHT22;18781;51.550;5.418;2023-07-29T11:49:58;26.10;59.90
32296;DHT22;18781;51.550;5.418;2023-07-29T11:52:25;26.20;60.20
32296;DHT22;18781;51.550;5.418;2023-07-29T11:54:52;26.20;60.00
32296;DHT22;18781;51.550;5.418;2023-07-29T11:57:18;26.20;60.00
32296;DHT22;18781;51.550;5.418;2023-07-29T11:59:44;26.30;60.20
32296;DHT22;18781;51.550;5.418;2023-07-29T12:02:15;26.40;60.10
32296;DHT22;18781;51.550;5.418;2023-07-29T12:04:41;26.40;60.10
32296;DHT22;18781;51.550;5.418;2023-07-29T12:07:08;26.40;59.80
32296;DHT22;18781;51.550;5.418;2023-07-29T12:09:35;26.40;59.20
32296;DHT22;18781;51.550;5.418;2023-07-29T12:12:05;26.40;58.80
32296;DHT22;18781;51.550;5.418;2023-07-29T12:14:32;26.40;58.50
32296;DHT22;18781;51.550;5.418;2023-07-29T12:17:00;26.30;58.10
32296;DHT22;18781;51.550;5.418;2023-07-29T12:19:32;26.30;58.60
32296;DHT22;18781;51.550;5.418;2023-07-29T12:21:58;26.10;59.20
32296;DHT22;18781;51.550;5.418;2023-07-29T12:24:24;26.00;59.10
32296;DHT22;18781;51.550;5.418;2023-07-29T12:26:50;25.90;59.80
32296;DHT22;18781;51.550;5.418;2023-07-29T12:29:18;25.70;60.40
32296;DHT22;18781;51.550;5.418;2023-07-29T12:31:46;25.60;60.70
32296;DHT22;18781;51.550;5.418;2023-07-29T12:34:19;25.50;61.30
32296;DHT22;18781;51.550;5.418;2023-07-29T12:36:48;25.40;62.00
32296;DHT22;18781;51.550;5.418;2023-07-29T12:39:23;25.30;61.90
32296;DHT22;18781;51.550;5.418;2023-07-29T12:41:50;25.20;62.10
32296;DHT22;18781;51.550;5.418;2023-07-29T12:44:16;25.10;61.80
32296;DHT22;18781;51.550;5.418;2023-07-29T12:46:42;25.00;62.40
32296;DHT22;18781;51.550;5.418;2023-07-29T12:49:08;24.90;63.00
32296;DHT22;18781;51.550;5.418;2023-07-29T12:51:34;24.80;63.20
32296;DHT22;18781;51.550;5.418;2023-07-29T12:54:01;24.70;64.10
32296;DHT22;18781;51.550;5.418;2023-07-29T12:56:27;24.70;64.60
32296;DHT22;18781;51.550;5.418;2023-07-29T12:58:52;24.70;65.10
32296;DHT22;18781;51.550;5.418;2023-07-29T13:01:18;24.70;65.40
32296;DHT22;18781;51.550;5.418;2023-07-29T13:03:44;24.70;66.00
32296;DHT22;18781;51.550;5.418;2023-07-29T13:06:10;24.70;66.20
32296;DHT22;18781;51.550;5.418;2023-07-29T13:08:35;24.70;66.70
32296;DHT22;18781;51.550;5.418;2023-07-29T13:11:01;24.80;67.10
32296;DHT22;18781;51.550;5.418;2023-07-29T13:13:27;24.80;67.30
32296;DHT22;18781;51.550;5.418;2023-07-29T13:15:52;24.80;67.50
32296;DHT22;18781;51.550;5.418;2023-07-29T13:18:18;24.90;67.60
32296;DHT22;18781;51.550;5.418;2023-07-29T13:20:43;24.90;67.40
32296;DHT22;18781;51.550;5.418;2023-07-29T13:23:09;24.90;67.20
32296;DHT22;18781;51.550;5.418;2023-07-29T13:25:35;25.00;67.00
32296;DHT22;18781;51.550;5.418;2023-07-29T13:28:00;25.00;67.20
32296;DHT22;18781;51.550;5.418;2023-07-29T13:30:26;25.00;67.30
32296;DHT22;18781;51.550;5.418;2023-07-29T13:32:51;25.00;67.80
32296;DHT22;18781;51.550;5.418;2023-07-29T13:35:17;25.00;67.30
32296;DHT22;18781;51.550;5.418;2023-07-29T13:37:42;25.10;67.00
32296;DHT22;18781;51.550;5.418;2023-07-29T13:40:08;25.10;66.60
32296;DHT22;18781;51.550;5.418;2023-07-29T13:42:33;25.10;66.60
32296;DHT22;18781;51.550;5.418;2023-07-29T13:44:59;25.20;67.90
32296;DHT22;18781;51.550;5.418;2023-07-29T13:47:24;25.20;67.30
32296;DHT22;18781;51.550;5.418;2023-07-29T13:49:50;25.30;67.30
32296;DHT22;18781;51.550;5.418;2023-07-29T13:52:16;25.30;67.20
32296;DHT22;18781;51.550;5.418;2023-07-29T13:54:41;25.40;66.90
32296;DHT22;18781;51.550;5.418;2023-07-29T13:57:07;25.40;67.00
32296;DHT22;18781;51.550;5.418;2023-07-29T13:59:33;25.50;66.00
32296;DHT22;18781;51.550;5.418;2023-07-29T14:01:58;25.50;66.10
32296;DHT22;18781;51.550;5.418;2023-07-29T14:04:24;25.50;66.30
32296;DHT22;18781;51.550;5.418;2023-07-29T14:06:49;25.60;66.20
32296;DHT22;18781;51.550;5.418;2023-07-29T14:09:15;25.60;66.00
32296;DHT22;18781;51.550;5.418;2023-07-29T14:11:40;25.70;65.90
32296;DHT22;18781;51.550;5.418;2023-07-29T14:14:07;25.70;65.60
32296;DHT22;18781;51.550;5.418;2023-07-29T14:16:32;25.80;65.70
32296;DHT22;18781;51.550;5.418;2023-07-29T14:18:58;25.80;65.70
32296;DHT22;18781;51.550;5.418;2023-07-29T14:21:23;25.90;66.00
32296;DHT22;18781;51.550;5.418;2023-07-29T14:23:50;25.90;65.40
32296;DHT22;18781;51.550;5.418;2023-07-29T14:26:15;26.00;64.40
32296;DHT22;18781;51.550;5.418;2023-07-29T14:28:41;26.00;64.80
32296;DHT22;18781;51.550;5.418;2023-07-29T14:31:07;26.10;64.80
32296;DHT22;18781;51.550;5.418;2023-07-29T14:33:32;26.10;63.90
32296;DHT22;18781;51.550;5.418;2023-07-29T14:35:58;26.20;63.70
32296;DHT22;18781;51.550;5.418;2023-07-29T14:38:23;26.20;63.20
32296;DHT22;18781;51.550;5.418;2023-07-29T14:40:49;26.20;63.00
32296;DHT22;18781;51.550;5.418;2023-07-29T14:43:17;26.20;63.20
32296;DHT22;18781;51.550;5.418;2023-07-29T14:45:42;26.20;62.30
32296;DHT22;18781;51.550;5.418;2023-07-29T14:48:08;26.20;63.00
32296;DHT22;18781;51.550;5.418;2023-07-29T14:50:33;26.20;63.10
32296;DHT22;18781;51.550;5.418;2023-07-29T14:52:59;26.20;63.00
32296;DHT22;18781;51.550;5.418;2023-07-29T14:55:24;26.30;63.10
32296;DHT22;18781;51.550;5.418;2023-07-29T14:57:50;26.30;62.20
32296;DHT22;18781;51.550;5.418;2023-07-29T15:00:15;26.30;62.30
32296;DHT22;18781;51.550;5.418;2023-07-29T15:02:41;26.40;61.90
32296;DHT22;18781;51.550;5.418;2023-07-29T15:05:07;26.40;62.60
32296;DHT22;18781;51.550;5.418;2023-07-29T15:07:33;26.50;62.40
32296;DHT22;18781;51.550;5.418;2023-07-29T15:09:58;26.50;62.20
32296;DHT22;18781;51.550;5.418;2023-07-29T15:12:24;26.60;60.40
32296;DHT22;18781;51.550;5.418;2023-07-29T15:14:50;26.60;60.60
32296;DHT22;18781;51.550;5.418;2023-07-29T15:17:15;26.70;60.20
32296;DHT22;18781;51.550;5.418;2023-07-29T15:19:41;26.70;60.40
32296;DHT22;18781;51.550;5.418;2023-07-29T15:22:06;26.70;60.30
32296;DHT22;18781;51.550;5.418;2023-07-29T15:24:32;26.80;60.30
32296;DHT22;18781;51.550;5.418;2023-07-29T15:26:57;26.80;60.00
32296;DHT22;18781;51.550;5.418;2023-07-29T15:29:23;26.80;60.00
32296;DHT22;18781;51.550;5.418;2023-07-29T15:31:49;26.80;60.00
32296;DHT22;18781;51.550;5.418;2023-07-29T15:34:14;26.90;59.60
32296;DHT22;18781;51.550;5.418;2023-07-29T15:36:40;26.90;59.60